sensor_id;sensor_type;location;lat;lon;timestamp;P1;durP1;ratioP1;P2;durP2;ratioP2
11267;SDS011;49397;47.474;9.416;2022-07-01T00:01:36;2.03;;;1.83;;
11267;SDS011;49397;47.474;9.416;2022-07-01T00:04:02;4.15;;;1.90;;
11267;SDS011;49397;47.474;9.416;2022-07-01T00:06:28;1.90;;;1.70;;
11267;SDS011;49397;47.474;9.416;2022-07-01T00:08:54;2.10;;;2.00;;
11267;SDS011;49397;47.474;9.416;2022-07-01T00:11:19;2.13;;;1.90;;
11267;SDS011;49397;47.474;9.416;2022-07-01T00:13:45;1.87;;;1.77;;
11267;SDS011;49397;47.474;9.416;2022-07-01T00:16:10;1.80;;;1.70;;
11267;SDS011;49397;47.474;9.416;2022-07-01T00:18:36;1.60;;;1.50;;
11267;SDS011;49397;47.474;9.416;2022-07-01T00:21:02;1.70;;;1.60;;
11267;SDS011;49397;47.474;9.416;2022-07-01T00:23:28;1.80;;;1.70;;
11267;SDS011;49397;47.474;9.416;2022-07-01T00:25:53;1.70;;;1.60;;
11267;SDS011;49397;47.474;9.416;2022-07-01T00:28:19;1.80;;;1.70;;
11267;SDS011;49397;47.474;9.416;2022-07-01T00:30:44;1.90;;;1.80;;
11267;SDS011;49397;47.474;9.416;2022-07-01T00:33:10;3.03;;;1.70;;
11267;SDS011;49397;47.474;9.416;2022-07-01T00:35:36;1.67;;;1.67;;
11267;SDS011;49397;47.474;9.416;2022-07-01T00:38:01;1.80;;;1.70;;
11267;SDS011;49397;47.474;9.416;2022-07-01T00:40:27;1.67;;;1.58;;
11267;SDS011;49397;47.474;9.416;2022-07-01T00:42:53;2.10;;;2.00;;
11267;SDS011;49397;47.474;9.416;2022-07-01T00:45:18;2.10;;;2.00;;
11267;SDS011;49397;47.474;9.416;2022-07-01T00:47:44;2.53;;;2.08;;
11267;SDS011;49397;47.474;9.416;2022-07-01T00:50:11;1.95;;;1.83;;
11267;SDS011;49397;47.474;9.416;2022-07-01T00:52:38;2.13;;;2.03;;
11267;SDS011;49397;47.474;9.416;2022-07-01T00:55:09;2.10;;;1.90;;
11267;SDS011;49397;47.474;9.416;2022-07-01T00:57:37;2.38;;;2.00;;
11267;SDS011;49397;47.474;9.416;2022-07-01T01:00:04;2.53;;;2.28;;
11267;SDS011;49397;47.474;9.416;2022-07-01T01:02:50;1.87;;;1.77;;
11267;SDS011;49397;47.474;9.416;2022-07-01T01:05:16;2.37;;;2.00;;
11267;SDS011;49397;47.474;9.416;2022-07-01T01:07:43;2.30;;;2.10;;
11267;SDS011;49397;47.474;9.416;2022-07-01T01:10:09;2.70;;;2.30;;
11267;SDS011;49397;47.474;9.416;2022-07-01T01:12:35;2.65;;;2.40;;
11267;SDS011;49397;47.474;9.416;2022-07-01T01:15:01;2.60;;;2.20;;
11267;SDS011;49397;47.474;9.416;2022-07-01T01:17:27;3.03;;;2.20;;
11267;SDS011;49397;47.474;9.416;2022-07-01T01:19:53;2.83;;;2.20;;
11267;SDS011;49397;47.474;9.416;2022-07-01T01:22:21;2.97;;;2.20;;
11267;SDS011;49397;47.474;9.416;2022-07-01T01:24:46;2.70;;;2.45;;
11267;SDS011;49397;47.474;9.416;2022-07-01T01:27:12;2.70;;;2.50;;
11267;SDS011;49397;47.474;9.416;2022-07-01T01:29:39;3.03;;;2.58;;
11267;SDS011;49397;47.474;9.416;2022-07-01T01:32:05;2.33;;;2.13;;
11267;SDS011;49397;47.474;9.416;2022-07-01T01:34:32;3.05;;;2.22;;
11267;SDS011;49397;47.474;9.416;2022-07-01T01:36:59;2.60;;;2.40;;
11267;SDS011;49397;47.474;9.416;2022-07-01T01:39:25;2.30;;;2.20;;
11267;SDS011;49397;47.474;9.416;2022-07-01T01:41:50;2.70;;;2.30;;
11267;SDS011;49397;47.474;9.416;2022-07-01T01:44:16;3.53;;;2.55;;
11267;SDS011;49397;47.474;9.416;2022-07-01T01:46:41;2.25;;;2.05;;
11267;SDS011;49397;47.474;9.416;2022-07-01T01:49:07;2.70;;;2.33;;
11267;SDS011;49397;47.474;9.416;2022-07-01T01:51:33;2.13;;;2.03;;
11267;SDS011;49397;47.474;9.416;2022-07-01T01:53:59;2.38;;;2.03;;
11267;SDS011;49397;47.474;9.416;2022-07-01T01:56:25;2.20;;;2.00;;
11267;SDS011;49397;47.474;9.416;2022-07-01T01:58:51;2.28;;;2.05;;
11267;SDS011;49397;47.474;9.416;2022-07-01T02:01:17;2.47;;;2.10;;
11267;SDS011;49397;47.474;9.416;2022-07-01T02:03:44;2.30;;;2.13;;
11267;SDS011;49397;47.474;9.416;2022-07-01T02:06:12;3.10;;;2.13;;
11267;SDS011;49397;47.474;9.416;2022-07-01T02:08:39;3.10;;;2.20;;
11267;SDS011;49397;47.474;9.416;2022-07-01T02:11:05;2.08;;;1.98;;
11267;SDS011;49397;47.474;9.416;2022-07-01T02:13:31;2.55;;;2.33;;
11267;SDS011;49397;47.474;9.416;2022-07-01T02:15:57;3.07;;;2.60;;
11267;SDS011;49397;47.474;9.416;2022-07-01T02:18:23;2.25;;;2.05;;
11267;SDS011;49397;47.474;9.416;2022-07-01T02:20:49;2.20;;;2.10;;
11267;SDS011;49397;47.474;9.416;2022-07-01T02:23:15;2.38;;;2.15;;
11267;SDS011;49397;47.474;9.416;2022-07-01T02:25:41;3.42;;;2.10;;
11267;SDS011;49397;47.474;9.416;2022-07-01T02:28:07;2.25;;;2.10;;
11267;SDS011;49397;47.474;9.416;2022-07-01T02:30:33;2.15;;;2.03;;
11267;SDS011;49397;47.474;9.416;2022-07-01T02:33:05;4.30;;;2.30;;
11267;SDS011;49397;47.474;9.416;2022-07-01T02:35:31;2.50;;;2.30;;
11267;SDS011;49397;47.474;9.416;2022-07-01T02:37:57;2.33;;;2.13;;
11267;SDS011;49397;47.474;9.416;2022-07-01T02:40:23;2.40;;;2.20;;
11267;SDS011;49397;47.474;9.416;2022-07-01T02:42:49;2.50;;;2.30;;
11267;SDS011;49397;47.474;9.416;2022-07-01T02:45:14;2.30;;;2.20;;
11267;SDS011;49397;47.474;9.416;2022-07-01T02:47:40;4.17;;;2.23;;
11267;SDS011;49397;47.474;9.416;2022-07-01T02:50:07;2.13;;;2.03;;
11267;SDS011;49397;47.474;9.416;2022-07-01T02:52:36;2.60;;;2.40;;
11267;SDS011;49397;47.474;9.416;2022-07-01T02:55:03;2.90;;;2.27;;
11267;SDS011;49397;47.474;9.416;2022-07-01T02:57:48;2.63;;;2.30;;
11267;SDS011;49397;47.474;9.416;2022-07-01T03:00:35;3.25;;;2.60;;
11267;SDS011;49397;47.474;9.416;2022-07-01T03:03:20;2.55;;;2.35;;
11267;SDS011;49397;47.474;9.416;2022-07-01T03:06:04;2.03;;;1.93;;
11267;SDS011;49397;47.474;9.416;2022-07-01T03:08:48;2.00;;;1.90;;
11267;SDS011;49397;47.474;9.416;2022-07-01T03:11:32;2.30;;;2.10;;
11267;SDS011;49397;47.474;9.416;2022-07-01T03:14:16;2.60;;;2.40;;
11267;SDS011;49397;47.474;9.416;2022-07-01T03:17:00;2.73;;;2.53;;
11267;SDS011;49397;47.474;9.416;2022-07-01T03:19:44;2.50;;;2.40;;
11267;SDS011;49397;47.474;9.416;2022-07-01T03:22:29;3.67;;;2.30;;
11267;SDS011;49397;47.474;9.416;2022-07-01T03:25:15;3.05;;;2.22;;
11267;SDS011;49397;47.474;9.416;2022-07-01T03:27:59;3.58;;;2.40;;
11267;SDS011;49397;47.474;9.416;2022-07-01T03:30:46;2.25;;;2.15;;
11267;SDS011;49397;47.474;9.416;2022-07-01T03:33:31;2.60;;;2.40;;
11267;SDS011;49397;47.474;9.416;2022-07-01T03:36:14;2.40;;;2.20;;
11267;SDS011;49397;47.474;9.416;2022-07-01T03:38:59;2.60;;;2.40;;
11267;SDS011;49397;47.474;9.416;2022-07-01T03:41:44;2.42;;;2.30;;
11267;SDS011;49397;47.474;9.416;2022-07-01T03:44:28;2.13;;;1.92;;
11267;SDS011;49397;47.474;9.416;2022-07-01T03:47:12;2.28;;;2.10;;
11267;SDS011;49397;47.474;9.416;2022-07-01T03:49:56;2.50;;;2.30;;
11267;SDS011;49397;47.474;9.416;2022-07-01T03:52:40;2.63;;;2.42;;
11267;SDS011;49397;47.474;9.416;2022-07-01T03:55:25;2.70;;;2.50;;
11267;SDS011;49397;47.474;9.416;2022-07-01T03:58:09;2.40;;;2.30;;
11267;SDS011;49397;47.474;9.416;2022-07-01T04:00:53;2.60;;;2.45;;
11267;SDS011;49397;47.474;9.416;2022-07-01T04:03:37;2.63;;;2.43;;
11267;SDS011;49397;47.474;9.416;2022-07-01T04:06:21;2.50;;;2.30;;
11267;SDS011;49397;47.474;9.416;2022-07-01T04:09:06;2.00;;;1.90;;
11267;SDS011;49397;47.474;9.416;2022-07-01T04:11:50;2.15;;;1.95;;
11267;SDS011;49397;47.474;9.416;2022-07-01T04:14:35;1.70;;;1.60;;
11267;SDS011;49397;47.474;9.416;2022-07-01T04:17:20;1.60;;;1.50;;
11267;SDS011;49397;47.474;9.416;2022-07-01T04:20:04;1.50;;;1.50;;
11267;SDS011;49397;47.474;9.416;2022-07-01T04:22:48;1.42;;;1.33;;
11267;SDS011;49397;47.474;9.416;2022-07-01T04:25:32;1.45;;;1.35;;
11267;SDS011;49397;47.474;9.416;2022-07-01T04:28:16;1.58;;;1.50;;
11267;SDS011;49397;47.474;9.416;2022-07-01T04:31:00;1.20;;;1.20;;
11267;SDS011;49397;47.474;9.416;2022-07-01T04:33:45;1.47;;;1.20;;
11267;SDS011;49397;47.474;9.416;2022-07-01T04:36:30;1.30;;;1.20;;
11267;SDS011;49397;47.474;9.416;2022-07-01T04:39:14;1.30;;;1.30;;
11267;SDS011;49397;47.474;9.416;2022-07-01T04:41:58;1.30;;;1.30;;
11267;SDS011;49397;47.474;9.416;2022-07-01T04:44:45;1.20;;;1.20;;
11267;SDS011;49397;47.474;9.416;2022-07-01T04:47:29;1.50;;;1.40;;
11267;SDS011;49397;47.474;9.416;2022-07-01T04:50:15;1.40;;;1.30;;
11267;SDS011;49397;47.474;9.416;2022-07-01T04:52:59;1.20;;;1.20;;
11267;SDS011;49397;47.474;9.416;2022-07-01T04:55:43;1.30;;;1.20;;
11267;SDS011;49397;47.474;9.416;2022-07-01T04:58:27;1.20;;;1.20;;
11267;SDS011;49397;47.474;9.416;2022-07-01T05:01:11;2.05;;;1.80;;
11267;SDS011;49397;47.474;9.416;2022-07-01T05:03:55;1.80;;;1.10;;
11267;SDS011;49397;47.474;9.416;2022-07-01T05:06:40;1.30;;;1.30;;
11267;SDS011;49397;47.474;9.416;2022-07-01T05:09:24;1.27;;;1.27;;
11267;SDS011;49397;47.474;9.416;2022-07-01T05:12:08;1.42;;;1.33;;
11267;SDS011;49397;47.474;9.416;2022-07-01T05:14:53;1.38;;;1.27;;
11267;SDS011;49397;47.474;9.416;2022-07-01T05:17:37;1.15;;;1.15;;
11267;SDS011;49397;47.474;9.416;2022-07-01T05:20:40;1.43;;;1.43;;
11267;SDS011;49397;47.474;9.416;2022-07-01T05:23:43;1.20;;;1.20;;
11267;SDS011;49397;47.474;9.416;2022-07-01T05:26:27;1.10;;;1.10;;
11267;SDS011;49397;47.474;9.416;2022-07-01T05:29:11;1.20;;;1.20;;
11267;SDS011;49397;47.474;9.416;2022-07-01T05:31:55;1.40;;;1.40;;
11267;SDS011;49397;47.474;9.416;2022-07-01T05:34:39;1.35;;;1.25;;
11267;SDS011;49397;47.474;9.416;2022-07-01T05:37:24;1.10;;;1.10;;
11267;SDS011;49397;47.474;9.416;2022-07-01T05:40:08;1.50;;;1.40;;
11267;SDS011;49397;47.474;9.416;2022-07-01T05:42:52;1.40;;;1.40;;
11267;SDS011;49397;47.474;9.416;2022-07-01T05:45:36;1.35;;;1.35;;
11267;SDS011;49397;47.474;9.416;2022-07-01T05:48:20;1.10;;;1.10;;
11267;SDS011;49397;47.474;9.416;2022-07-01T05:51:04;1.40;;;1.30;;
11267;SDS011;49397;47.474;9.416;2022-07-01T05:53:48;1.83;;;1.60;;
11267;SDS011;49397;47.474;9.416;2022-07-01T05:56:32;1.63;;;1.58;;
11267;SDS011;49397;47.474;9.416;2022-07-01T05:59:17;1.30;;;1.30;;
11267;SDS011;49397;47.474;9.416;2022-07-01T06:02:01;1.63;;;1.52;;
11267;SDS011;49397;47.474;9.416;2022-07-01T06:04:44;1.50;;;1.40;;
11267;SDS011;49397;47.474;9.416;2022-07-01T06:07:29;1.58;;;1.50;;
11267;SDS011;49397;47.474;9.416;2022-07-01T06:10:13;1.30;;;1.30;;
11267;SDS011;49397;47.474;9.416;2022-07-01T06:12:57;1.33;;;1.27;;
11267;SDS011;49397;47.474;9.416;2022-07-01T06:15:40;1.30;;;1.30;;
11267;SDS011;49397;47.474;9.416;2022-07-01T06:18:25;1.45;;;1.35;;
11267;SDS011;49397;47.474;9.416;2022-07-01T06:21:09;1.40;;;1.40;;
11267;SDS011;49397;47.474;9.416;2022-07-01T06:23:53;1.20;;;1.20;;
11267;SDS011;49397;47.474;9.416;2022-07-01T06:26:37;1.38;;;1.27;;
11267;SDS011;49397;47.474;9.416;2022-07-01T06:29:21;2.65;;;1.30;;
11267;SDS011;49397;47.474;9.416;2022-07-01T06:32:05;1.60;;;1.50;;
11267;SDS011;49397;47.474;9.416;2022-07-01T06:34:51;1.25;;;1.25;;
11267;SDS011;49397;47.474;9.416;2022-07-01T06:37:36;1.20;;;1.20;;
11267;SDS011;49397;47.474;9.416;2022-07-01T06:40:20;1.55;;;1.45;;
11267;SDS011;49397;47.474;9.416;2022-07-01T06:43:04;1.50;;;1.50;;
11267;SDS011;49397;47.474;9.416;2022-07-01T06:45:48;1.48;;;1.40;;
11267;SDS011;49397;47.474;9.416;2022-07-01T06:48:32;1.10;;;1.10;;
11267;SDS011;49397;47.474;9.416;2022-07-01T06:51:16;1.40;;;1.30;;
11267;SDS011;49397;47.474;9.416;2022-07-01T06:54:01;1.70;;;1.60;;
11267;SDS011;49397;47.474;9.416;2022-07-01T06:56:46;1.85;;;1.60;;
11267;SDS011;49397;47.474;9.416;2022-07-01T06:59:30;1.50;;;1.48;;
11267;SDS011;49397;47.474;9.416;2022-07-01T07:02:14;1.40;;;1.40;;
11267;SDS011;49397;47.474;9.416;2022-07-01T07:04:58;1.50;;;1.40;;
11267;SDS011;49397;47.474;9.416;2022-07-01T07:07:42;1.67;;;1.48;;
11267;SDS011;49397;47.474;9.416;2022-07-01T07:10:29;1.50;;;1.40;;
11267;SDS011;49397;47.474;9.416;2022-07-01T07:13:14;1.60;;;1.50;;
11267;SDS011;49397;47.474;9.416;2022-07-01T07:15:58;1.40;;;1.30;;
11267;SDS011;49397;47.474;9.416;2022-07-01T07:18:42;1.48;;;1.48;;
11267;SDS011;49397;47.474;9.416;2022-07-01T07:21:26;1.50;;;1.50;;
11267;SDS011;49397;47.474;9.416;2022-07-01T07:24:09;2.00;;;1.50;;
11267;SDS011;49397;47.474;9.416;2022-07-01T07:26:53;1.45;;;1.27;;
11267;SDS011;49397;47.474;9.416;2022-07-01T07:29:37;1.55;;;1.33;;
11267;SDS011;49397;47.474;9.416;2022-07-01T07:32:22;1.23;;;1.23;;
11267;SDS011;49397;47.474;9.416;2022-07-01T07:35:06;1.40;;;1.40;;
11267;SDS011;49397;47.474;9.416;2022-07-01T07:37:51;1.60;;;1.50;;
11267;SDS011;49397;47.474;9.416;2022-07-01T07:40:35;1.40;;;1.40;;
11267;SDS011;49397;47.474;9.416;2022-07-01T07:43:19;3.10;;;1.30;;
11267;SDS011;49397;47.474;9.416;2022-07-01T07:46:03;1.38;;;1.30;;
11267;SDS011;49397;47.474;9.416;2022-07-01T07:48:48;1.23;;;1.20;;
11267;SDS011;49397;47.474;9.416;2022-07-01T07:51:32;1.40;;;1.30;;
11267;SDS011;49397;47.474;9.416;2022-07-01T07:54:17;1.50;;;1.40;;
11267;SDS011;49397;47.474;9.416;2022-07-01T07:57:01;1.63;;;1.52;;
11267;SDS011;49397;47.474;9.416;2022-07-01T07:59:45;2.03;;;1.50;;
11267;SDS011;49397;47.474;9.416;2022-07-01T08:02:29;1.60;;;1.50;;
11267;SDS011;49397;47.474;9.416;2022-07-01T08:05:13;1.50;;;1.40;;
11267;SDS011;49397;47.474;9.416;2022-07-01T08:07:57;1.70;;;1.55;;
11267;SDS011;49397;47.474;9.416;2022-07-01T08:10:41;3.13;;;1.55;;
11267;SDS011;49397;47.474;9.416;2022-07-01T08:13:25;1.85;;;1.60;;
11267;SDS011;49397;47.474;9.416;2022-07-01T08:16:09;2.47;;;2.27;;
11267;SDS011;49397;47.474;9.416;2022-07-01T08:18:53;1.70;;;1.60;;
11267;SDS011;49397;47.474;9.416;2022-07-01T08:21:38;2.95;;;1.73;;
11267;SDS011;49397;47.474;9.416;2022-07-01T08:24:22;1.70;;;1.60;;
11267;SDS011;49397;47.474;9.416;2022-07-01T08:27:06;1.70;;;1.60;;
11267;SDS011;49397;47.474;9.416;2022-07-01T08:29:50;2.33;;;2.13;;
11267;SDS011;49397;47.474;9.416;2022-07-01T08:32:34;1.90;;;1.80;;
11267;SDS011;49397;47.474;9.416;2022-07-01T08:35:18;1.70;;;1.60;;
11267;SDS011;49397;47.474;9.416;2022-07-01T08:38:02;2.20;;;1.70;;
11267;SDS011;49397;47.474;9.416;2022-07-01T08:40:47;1.85;;;1.60;;
11267;SDS011;49397;47.474;9.416;2022-07-01T08:43:31;1.50;;;1.40;;
11267;SDS011;49397;47.474;9.416;2022-07-01T08:46:15;1.63;;;1.58;;
11267;SDS011;49397;47.474;9.416;2022-07-01T08:48:59;1.40;;;1.40;;
11267;SDS011;49397;47.474;9.416;2022-07-01T08:51:43;1.55;;;1.45;;
11267;SDS011;49397;47.474;9.416;2022-07-01T08:54:28;2.10;;;1.90;;
11267;SDS011;49397;47.474;9.416;2022-07-01T08:57:12;1.80;;;1.70;;
11267;SDS011;49397;47.474;9.416;2022-07-01T09:00:06;1.80;;;1.70;;
11267;SDS011;49397;47.474;9.416;2022-07-01T09:05:38;1.88;;;1.77;;
11267;SDS011;49397;47.474;9.416;2022-07-01T09:08:30;2.10;;;2.00;;
11267;SDS011;49397;47.474;9.416;2022-07-01T09:11:18;2.20;;;1.55;;
11267;SDS011;49397;47.474;9.416;2022-07-01T09:14:05;2.00;;;1.90;;
11267;SDS011;49397;47.474;9.416;2022-07-01T09:16:52;1.80;;;1.70;;
11267;SDS011;49397;47.474;9.416;2022-07-01T09:19:39;3.20;;;2.00;;
11267;SDS011;49397;47.474;9.416;2022-07-01T09:22:24;2.40;;;2.20;;
11267;SDS011;49397;47.474;9.416;2022-07-01T09:25:13;3.90;;;2.50;;
11267;SDS011;49397;47.474;9.416;2022-07-01T09:28:04;1.80;;;1.70;;
11267;SDS011;49397;47.474;9.416;2022-07-01T09:30:50;1.63;;;1.53;;
11267;SDS011;49397;47.474;9.416;2022-07-01T09:33:36;1.90;;;1.70;;
11267;SDS011;49397;47.474;9.416;2022-07-01T09:36:20;1.45;;;1.35;;
11267;SDS011;49397;47.474;9.416;2022-07-01T09:39:04;1.60;;;1.50;;
11267;SDS011;49397;47.474;9.416;2022-07-01T09:41:48;1.63;;;1.42;;
11267;SDS011;49397;47.474;9.416;2022-07-01T09:44:33;1.60;;;1.50;;
11267;SDS011;49397;47.474;9.416;2022-07-01T09:47:17;1.75;;;1.65;;
11267;SDS011;49397;47.474;9.416;2022-07-01T09:50:02;2.63;;;2.00;;
11267;SDS011;49397;47.474;9.416;2022-07-01T09:52:48;1.95;;;1.85;;
11267;SDS011;49397;47.474;9.416;2022-07-01T09:55:33;2.83;;;2.03;;
11267;SDS011;49397;47.474;9.416;2022-07-01T09:58:18;2.63;;;2.40;;
11267;SDS011;49397;47.474;9.416;2022-07-01T10:01:02;2.47;;;2.28;;
11267;SDS011;49397;47.474;9.416;2022-07-01T10:03:46;2.88;;;2.05;;
11267;SDS011;49397;47.474;9.416;2022-07-01T10:12:54;2.13;;;2.00;;
11267;SDS011;49397;47.474;9.416;2022-07-01T10:15:40;5.90;;;5.33;;
11267;SDS011;49397;47.474;9.416;2022-07-01T10:18:25;13.43;;;10.77;;
11267;SDS011;49397;47.474;9.416;2022-07-01T10:21:11;4.10;;;3.70;;
11267;SDS011;49397;47.474;9.416;2022-07-01T10:24:11;2.17;;;1.98;;
11267;SDS011;49397;47.474;9.416;2022-07-01T10:27:00;2.15;;;2.05;;
11267;SDS011;49397;47.474;9.416;2022-07-01T10:29:44;2.20;;;1.95;;
11267;SDS011;49397;47.474;9.416;2022-07-01T10:32:28;2.13;;;2.00;;
11267;SDS011;49397;47.474;9.416;2022-07-01T10:35:12;2.00;;;1.90;;
11267;SDS011;49397;47.474;9.416;2022-07-01T10:37:58;2.03;;;1.80;;
11267;SDS011;49397;47.474;9.416;2022-07-01T10:40:44;2.00;;;1.90;;
11267;SDS011;49397;47.474;9.416;2022-07-01T10:43:33;1.73;;;1.63;;
11267;SDS011;49397;47.474;9.416;2022-07-01T10:46:37;2.75;;;1.95;;
11267;SDS011;49397;47.474;9.416;2022-07-01T10:52:25;2.00;;;1.90;;
11267;SDS011;49397;47.474;9.416;2022-07-01T10:55:09;1.85;;;1.75;;
11267;SDS011;49397;47.474;9.416;2022-07-01T10:57:53;2.10;;;2.00;;
11267;SDS011;49397;47.474;9.416;2022-07-01T11:00:44;1.92;;;1.83;;
11267;SDS011;49397;47.474;9.416;2022-07-01T11:03:37;2.20;;;2.00;;
11267;SDS011;49397;47.474;9.416;2022-07-01T11:06:24;2.05;;;1.85;;
11267;SDS011;49397;47.474;9.416;2022-07-01T11:09:11;2.65;;;2.00;;
11267;SDS011;49397;47.474;9.416;2022-07-01T11:11:56;1.75;;;1.65;;
11267;SDS011;49397;47.474;9.416;2022-07-01T11:14:40;1.98;;;1.88;;
11267;SDS011;49397;47.474;9.416;2022-07-01T11:17:25;2.03;;;1.92;;
11267;SDS011;49397;47.474;9.416;2022-07-01T11:20:09;2.20;;;2.00;;
11267;SDS011;49397;47.474;9.416;2022-07-01T11:22:53;2.17;;;2.00;;
11267;SDS011;49397;47.474;9.416;2022-07-01T11:25:38;2.13;;;2.03;;
11267;SDS011;49397;47.474;9.416;2022-07-01T11:28:22;2.20;;;1.90;;
11267;SDS011;49397;47.474;9.416;2022-07-01T11:31:06;1.70;;;1.60;;
11267;SDS011;49397;47.474;9.416;2022-07-01T11:33:50;1.70;;;1.60;;
11267;SDS011;49397;47.474;9.416;2022-07-01T11:36:34;1.70;;;1.60;;
11267;SDS011;49397;47.474;9.416;2022-07-01T11:39:37;2.05;;;1.85;;
11267;SDS011;49397;47.474;9.416;2022-07-01T11:42:25;1.80;;;1.70;;
11267;SDS011;49397;47.474;9.416;2022-07-01T11:45:09;1.70;;;1.60;;
11267;SDS011;49397;47.474;9.416;2022-07-01T11:48:07;2.00;;;1.80;;
11267;SDS011;49397;47.474;9.416;2022-07-01T11:50:51;2.00;;;1.80;;
11267;SDS011;49397;47.474;9.416;2022-07-01T11:53:36;1.80;;;1.70;;
11267;SDS011;49397;47.474;9.416;2022-07-01T11:56:33;1.70;;;1.60;;
11267;SDS011;49397;47.474;9.416;2022-07-01T11:59:22;1.52;;;1.50;;
11267;SDS011;49397;47.474;9.416;2022-07-01T12:02:07;1.90;;;1.80;;
11267;SDS011;49397;47.474;9.416;2022-07-01T12:04:52;1.60;;;1.50;;
11267;SDS011;49397;47.474;9.416;2022-07-01T12:07:36;1.98;;;1.88;;
11267;SDS011;49397;47.474;9.416;2022-07-01T12:10:23;1.63;;;1.52;;
11267;SDS011;49397;47.474;9.416;2022-07-01T12:13:20;1.80;;;1.70;;
11267;SDS011;49397;47.474;9.416;2022-07-01T12:16:05;2.10;;;2.00;;
11267;SDS011;49397;47.474;9.416;2022-07-01T12:18:51;2.30;;;1.85;;
11267;SDS011;49397;47.474;9.416;2022-07-01T12:21:51;2.30;;;2.20;;
11267;SDS011;49397;47.474;9.416;2022-07-01T12:24:37;2.10;;;2.00;;
11267;SDS011;49397;47.474;9.416;2022-07-01T12:27:22;1.88;;;1.77;;
11267;SDS011;49397;47.474;9.416;2022-07-01T12:30:07;1.83;;;1.73;;
11267;SDS011;49397;47.474;9.416;2022-07-01T12:32:54;2.08;;;1.98;;
11267;SDS011;49397;47.474;9.416;2022-07-01T12:35:40;2.10;;;1.90;;
11267;SDS011;49397;47.474;9.416;2022-07-01T12:38:25;4.95;;;3.25;;
11267;SDS011;49397;47.474;9.416;2022-07-01T12:44:23;2.35;;;2.15;;
11267;SDS011;49397;47.474;9.416;2022-07-01T12:47:23;2.17;;;2.03;;
11267;SDS011;49397;47.474;9.416;2022-07-01T12:50:21;2.80;;;2.03;;
11267;SDS011;49397;47.474;9.416;2022-07-01T12:53:11;2.00;;;1.90;;
11267;SDS011;49397;47.474;9.416;2022-07-01T12:56:05;2.10;;;2.00;;
11267;SDS011;49397;47.474;9.416;2022-07-01T12:58:50;2.15;;;2.05;;
11267;SDS011;49397;47.474;9.416;2022-07-01T13:01:37;2.73;;;2.17;;
11267;SDS011;49397;47.474;9.416;2022-07-01T13:04:24;2.60;;;2.00;;
11267;SDS011;49397;47.474;9.416;2022-07-01T13:07:10;2.40;;;2.30;;
11267;SDS011;49397;47.474;9.416;2022-07-01T13:09:54;1.90;;;1.80;;
11267;SDS011;49397;47.474;9.416;2022-07-01T13:12:38;2.17;;;2.03;;
11267;SDS011;49397;47.474;9.416;2022-07-01T13:15:22;2.25;;;2.15;;
11267;SDS011;49397;47.474;9.416;2022-07-01T13:18:06;2.35;;;2.22;;
11267;SDS011;49397;47.474;9.416;2022-07-01T13:20:50;2.60;;;2.40;;
11267;SDS011;49397;47.474;9.416;2022-07-01T13:23:34;3.78;;;2.60;;
11267;SDS011;49397;47.474;9.416;2022-07-01T13:26:18;2.50;;;2.40;;
11267;SDS011;49397;47.474;9.416;2022-07-01T13:29:02;2.90;;;2.70;;
11267;SDS011;49397;47.474;9.416;2022-07-01T13:31:46;2.60;;;2.40;;
11267;SDS011;49397;47.474;9.416;2022-07-01T13:34:30;2.50;;;2.33;;
11267;SDS011;49397;47.474;9.416;2022-07-01T13:37:16;2.45;;;2.35;;
11267;SDS011;49397;47.474;9.416;2022-07-01T13:40:00;2.95;;;2.60;;
11267;SDS011;49397;47.474;9.416;2022-07-01T13:42:44;2.97;;;2.78;;
11267;SDS011;49397;47.474;9.416;2022-07-01T13:45:28;3.45;;;3.10;;
11267;SDS011;49397;47.474;9.416;2022-07-01T13:48:12;3.05;;;2.85;;
11267;SDS011;49397;47.474;9.416;2022-07-01T13:50:57;3.30;;;3.10;;
11267;SDS011;49397;47.474;9.416;2022-07-01T13:53:41;3.38;;;3.17;;
11267;SDS011;49397;47.474;9.416;2022-07-01T13:56:26;3.20;;;3.00;;
11267;SDS011;49397;47.474;9.416;2022-07-01T13:59:10;4.05;;;3.10;;
11267;SDS011;49397;47.474;9.416;2022-07-01T14:01:55;3.22;;;2.97;;
11267;SDS011;49397;47.474;9.416;2022-07-01T14:04:40;3.30;;;3.10;;
11267;SDS011;49397;47.474;9.416;2022-07-01T14:07:24;3.05;;;2.85;;
11267;SDS011;49397;47.474;9.416;2022-07-01T14:10:08;3.00;;;2.80;;
11267;SDS011;49397;47.474;9.416;2022-07-01T14:12:52;2.88;;;2.70;;
11267;SDS011;49397;47.474;9.416;2022-07-01T14:15:36;3.05;;;2.85;;
11267;SDS011;49397;47.474;9.416;2022-07-01T14:18:20;2.85;;;2.65;;
11267;SDS011;49397;47.474;9.416;2022-07-01T14:21:04;4.43;;;3.10;;
11267;SDS011;49397;47.474;9.416;2022-07-01T14:23:48;3.42;;;2.95;;
11267;SDS011;49397;47.474;9.416;2022-07-01T14:26:32;4.07;;;3.70;;
11267;SDS011;49397;47.474;9.416;2022-07-01T14:29:17;3.63;;;3.33;;
11267;SDS011;49397;47.474;9.416;2022-07-01T14:32:01;3.72;;;3.42;;
11267;SDS011;49397;47.474;9.416;2022-07-01T14:34:45;3.20;;;2.90;;
11267;SDS011;49397;47.474;9.416;2022-07-01T14:37:29;3.13;;;2.92;;
11267;SDS011;49397;47.474;9.416;2022-07-01T14:40:13;3.00;;;2.80;;
11267;SDS011;49397;47.474;9.416;2022-07-01T14:42:57;3.45;;;3.25;;
11267;SDS011;49397;47.474;9.416;2022-07-01T14:45:41;3.22;;;2.85;;
11267;SDS011;49397;47.474;9.416;2022-07-01T14:48:25;3.27;;;3.03;;
11267;SDS011;49397;47.474;9.416;2022-07-01T14:51:09;3.13;;;2.92;;
11267;SDS011;49397;47.474;9.416;2022-07-01T14:53:54;3.20;;;2.70;;
11267;SDS011;49397;47.474;9.416;2022-07-01T14:56:38;3.20;;;2.92;;
11267;SDS011;49397;47.474;9.416;2022-07-01T14:59:22;3.22;;;2.97;;
11267;SDS011;49397;47.474;9.416;2022-07-01T15:02:06;3.17;;;2.88;;
11267;SDS011;49397;47.474;9.416;2022-07-01T15:04:50;3.20;;;2.95;;
11267;SDS011;49397;47.474;9.416;2022-07-01T15:07:34;3.63;;;3.33;;
11267;SDS011;49397;47.474;9.416;2022-07-01T15:10:18;3.70;;;2.97;;
11267;SDS011;49397;47.474;9.416;2022-07-01T15:13:03;3.10;;;2.90;;
11267;SDS011;49397;47.474;9.416;2022-07-01T15:15:47;3.38;;;2.95;;
11267;SDS011;49397;47.474;9.416;2022-07-01T15:18:31;3.72;;;2.95;;
11267;SDS011;49397;47.474;9.416;2022-07-01T15:21:16;2.60;;;2.40;;
11267;SDS011;49397;47.474;9.416;2022-07-01T15:24:00;2.35;;;2.22;;
11267;SDS011;49397;47.474;9.416;2022-07-01T15:26:44;2.53;;;2.40;;
11267;SDS011;49397;47.474;9.416;2022-07-01T15:29:28;2.50;;;2.30;;
11267;SDS011;49397;47.474;9.416;2022-07-01T15:32:12;3.05;;;2.50;;
11267;SDS011;49397;47.474;9.416;2022-07-01T15:34:56;2.85;;;2.65;;
11267;SDS011;49397;47.474;9.416;2022-07-01T15:37:40;2.50;;;2.30;;
11267;SDS011;49397;47.474;9.416;2022-07-01T15:40:24;2.58;;;2.38;;
11267;SDS011;49397;47.474;9.416;2022-07-01T15:43:08;2.23;;;2.03;;
11267;SDS011;49397;47.474;9.416;2022-07-01T15:45:52;2.60;;;2.40;;
11267;SDS011;49397;47.474;9.416;2022-07-01T15:48:37;2.60;;;2.40;;
11267;SDS011;49397;47.474;9.416;2022-07-01T15:51:22;2.38;;;2.05;;
11267;SDS011;49397;47.474;9.416;2022-07-01T15:54:08;1.80;;;1.70;;
11267;SDS011;49397;47.474;9.416;2022-07-01T15:56:52;1.60;;;1.50;;
11267;SDS011;49397;47.474;9.416;2022-07-01T15:59:36;1.90;;;1.80;;
11267;SDS011;49397;47.474;9.416;2022-07-01T16:02:20;2.17;;;2.08;;
11267;SDS011;49397;47.474;9.416;2022-07-01T16:05:04;3.05;;;2.75;;
11267;SDS011;49397;47.474;9.416;2022-07-01T16:07:49;2.70;;;2.50;;
11267;SDS011;49397;47.474;9.416;2022-07-01T16:10:45;2.60;;;2.40;;
11267;SDS011;49397;47.474;9.416;2022-07-01T16:13:33;4.40;;;2.78;;
11267;SDS011;49397;47.474;9.416;2022-07-01T16:16:22;3.45;;;2.88;;
11267;SDS011;49397;47.474;9.416;2022-07-01T16:19:07;53.75;;;31.60;;
11267;SDS011;49397;47.474;9.416;2022-07-01T16:21:51;34.95;;;19.70;;
11267;SDS011;49397;47.474;9.416;2022-07-01T16:24:36;23.33;;;13.27;;
11267;SDS011;49397;47.474;9.416;2022-07-01T16:27:21;16.35;;;9.98;;
11267;SDS011;49397;47.474;9.416;2022-07-01T16:30:05;10.50;;;6.40;;